createdAt,value
2018-04-24T00:00:51.252Z,9.20
2018-04-24T00:03:20.360Z,8.75
2018-04-24T00:05:49.480Z,8.70
2018-04-24T00:08:19.376Z,8.90
2018-04-24T00:10:48.601Z,8.73
2018-04-24T00:13:18.460Z,9.50
2018-04-24T00:15:47.579Z,9.17
2018-04-24T00:18:16.730Z,9.20
2018-04-24T00:20:45.847Z,10.50
2018-04-24T00:23:14.998Z,9.67
2018-04-24T00:25:44.885Z,10.20
2018-04-24T00:28:14.574Z,9.83
2018-04-24T00:30:43.712Z,11.27
2018-04-24T00:33:12.854Z,12.00
2018-04-24T00:35:41.967Z,12.83
2018-04-24T00:38:11.082Z,11.00
2018-04-24T00:40:40.978Z,11.30
2018-04-24T00:43:10.100Z,11.47
2018-04-24T00:45:40.000Z,12.10
2018-04-24T00:48:09.899Z,11.80
2018-04-24T00:50:39.029Z,12.77
2018-04-24T00:53:25.851Z,12.10
2018-04-24T00:55:54.989Z,11.20
2018-04-24T00:58:24.104Z,12.37
2018-04-24T01:00:54.046Z,12.97
2018-04-24T01:03:23.274Z,13.70
2018-04-24T01:05:52.405Z,12.47
2018-04-24T01:08:22.266Z,13.33
2018-04-24T01:10:51.384Z,13.10
2018-04-24T01:13:20.505Z,13.43
2018-04-24T01:15:50.384Z,14.23
2018-04-24T01:18:20.296Z,13.98
2018-04-24T01:20:49.444Z,13.90
2018-04-24T01:23:18.572Z,15.00
2018-04-24T01:25:47.724Z,15.80
2018-04-24T01:28:17.597Z,14.27
2018-04-24T01:30:46.712Z,14.70
2018-04-24T01:33:15.846Z,14.60
2018-04-24T01:35:44.968Z,14.27
2018-04-24T01:38:14.749Z,14.73
2018-04-24T01:40:44.660Z,14.53
2018-04-24T01:43:14.753Z,13.62
2018-04-24T01:45:44.678Z,14.23
2018-04-24T01:48:14.815Z,13.75
2018-04-24T01:50:43.946Z,13.40
2018-04-24T01:53:13.075Z,13.80
2018-04-24T01:55:42.962Z,15.17
2018-04-24T01:58:12.140Z,13.60
2018-04-24T02:00:41.270Z,13.03
2018-04-24T02:03:11.170Z,14.10
2018-04-24T02:05:40.296Z,14.30
2018-04-24T02:08:09.428Z,14.33
2018-04-24T02:10:38.676Z,13.80
2018-04-24T02:13:07.785Z,13.33
2018-04-24T02:15:36.908Z,13.77
2018-04-24T02:18:06.018Z,12.40
2018-04-24T02:20:35.220Z,13.10
2018-04-24T02:23:04.324Z,14.10
2018-04-24T02:25:33.454Z,14.23
2018-04-24T02:28:02.557Z,13.37
2018-04-24T02:30:31.681Z,13.77
2018-04-24T02:33:00.829Z,12.97
2018-04-24T02:35:29.949Z,13.65
2018-04-24T02:37:59.130Z,12.80
2018-04-24T02:40:28.272Z,12.77
2018-04-24T02:42:57.369Z,12.87
2018-04-24T02:45:26.502Z,12.93
2018-04-24T02:47:55.618Z,12.67
2018-04-24T02:50:24.751Z,13.40
2018-04-24T02:52:53.878Z,12.17
2018-04-24T02:55:23.749Z,11.70
2018-04-24T02:57:52.873Z,12.20
2018-04-24T03:00:22.754Z,12.98
2018-04-24T03:02:51.868Z,11.60
2018-04-24T03:05:21.013Z,11.52
2018-04-24T03:07:50.117Z,10.83
2018-04-24T03:10:19.625Z,12.80
2018-04-24T03:12:48.761Z,11.83
2018-04-24T03:15:17.885Z,11.90
2018-04-24T03:17:47.040Z,13.37
2018-04-24T03:20:16.165Z,12.00
2018-04-24T03:22:46.066Z,12.30
2018-04-24T03:25:15.963Z,13.37
2018-04-24T03:27:45.099Z,13.17
2018-04-24T03:30:15.896Z,12.18
2018-04-24T03:32:45.815Z,12.53
2018-04-24T03:35:15.032Z,12.43
2018-04-24T03:37:44.177Z,12.27
2018-04-24T03:40:13.327Z,12.27
2018-04-24T03:42:42.456Z,12.53
2018-04-24T03:45:11.593Z,12.77
2018-04-24T03:47:40.719Z,12.77
2018-04-24T03:50:09.869Z,12.57
2018-04-24T03:52:39.008Z,14.07
2018-04-24T03:55:08.117Z,12.50
2018-04-24T03:57:37.254Z,12.03
2018-04-24T04:00:06.361Z,12.17
2018-04-24T04:02:36.265Z,12.13
2018-04-24T04:05:05.374Z,13.60
2018-04-24T04:07:35.340Z,13.57
2018-04-24T04:10:05.185Z,13.10
2018-04-24T04:12:34.341Z,14.00
2018-04-24T04:15:03.512Z,14.90
2018-04-24T04:17:50.188Z,14.90
2018-04-24T04:20:37.690Z,12.65
2018-04-24T04:23:24.441Z,14.20
2018-04-24T04:25:53.566Z,13.43
2018-04-24T04:28:22.677Z,12.97
2018-04-24T04:30:51.784Z,13.13
2018-04-24T04:33:20.930Z,12.70
2018-04-24T04:35:50.064Z,13.53
2018-04-24T04:38:19.266Z,14.30
2018-04-24T04:40:48.389Z,14.47
2018-04-24T04:43:18.365Z,14.30
2018-04-24T04:45:47.522Z,13.73
2018-04-24T04:48:16.637Z,14.77
2018-04-24T04:50:45.770Z,13.40
2018-04-24T04:53:16.116Z,13.10
2018-04-24T04:55:45.229Z,13.63
2018-04-24T04:58:15.389Z,15.00
2018-04-24T05:00:44.523Z,13.33
2018-04-24T05:03:15.684Z,14.83
2018-04-24T05:05:44.802Z,14.67
2018-04-24T05:08:15.164Z,15.63
2018-04-24T05:10:45.074Z,15.10
2018-04-24T05:13:16.120Z,14.24
2018-04-24T05:15:46.016Z,15.87
2018-04-24T05:18:15.380Z,15.65
2018-04-24T05:20:44.521Z,16.80
2018-04-24T05:23:15.649Z,16.33
2018-04-24T05:25:44.829Z,17.37
2018-04-24T05:28:15.945Z,17.10
2018-04-24T05:30:45.081Z,16.27
2018-04-24T05:35:50.614Z,17.30
2018-04-24T05:38:19.723Z,17.25
2018-04-24T05:40:48.865Z,17.60
2018-04-24T05:43:18.024Z,18.17
2018-04-24T05:45:47.156Z,17.73
2018-04-24T05:48:16.266Z,17.70
2018-04-24T05:50:46.160Z,17.57
2018-04-24T05:53:15.385Z,17.00
2018-04-24T05:55:44.523Z,18.23
2018-04-24T05:58:15.684Z,17.37
2018-04-24T06:00:44.825Z,18.67
2018-04-24T06:03:15.199Z,17.90
2018-04-24T06:05:45.100Z,17.00
2018-04-24T06:08:15.548Z,16.50
2018-04-24T06:10:44.630Z,17.07
2018-04-24T06:13:13.753Z,16.40
2018-04-24T06:15:42.864Z,17.23
2018-04-24T06:18:11.996Z,17.40
2018-04-24T06:20:41.121Z,20.53
2018-04-24T06:23:11.025Z,17.00
2018-04-24T06:25:40.132Z,16.90
2018-04-24T06:28:09.315Z,17.87
2018-04-24T06:30:39.220Z,18.17
2018-04-24T06:33:09.148Z,19.33
2018-04-24T06:35:39.014Z,18.50
2018-04-24T06:38:08.160Z,18.77
2018-04-24T06:40:37.259Z,17.20
2018-04-24T06:43:06.426Z,18.52
2018-04-24T06:45:35.549Z,19.27
2018-04-24T06:48:05.434Z,18.33
2018-04-24T06:50:34.550Z,18.77
2018-04-24T06:53:03.686Z,16.50
2018-04-24T06:55:32.784Z,17.93
2018-04-24T06:58:01.944Z,16.60
2018-04-24T07:00:31.080Z,16.77
2018-04-24T07:03:00.210Z,15.40
2018-04-24T07:05:30.089Z,16.95
2018-04-24T07:07:59.207Z,16.37
2018-04-24T07:10:28.349Z,14.70
2018-04-24T07:12:57.483Z,14.53
2018-04-24T07:15:26.593Z,14.90
2018-04-24T07:17:55.714Z,14.20
2018-04-24T07:20:25.604Z,14.90
2018-04-24T07:22:54.713Z,13.33
2018-04-24T07:25:23.852Z,14.40
2018-04-24T07:27:52.963Z,12.83
2018-04-24T07:30:22.089Z,14.57
2018-04-24T07:32:52.054Z,14.67
2018-04-24T07:35:21.080Z,15.20
2018-04-24T07:37:50.273Z,15.03
2018-04-24T07:40:19.743Z,14.13
2018-04-24T07:42:48.881Z,13.97
2018-04-24T07:45:18.767Z,15.57
2018-04-24T07:47:47.895Z,14.50
2018-04-24T07:50:17.785Z,15.67
2018-04-24T07:52:46.926Z,13.47
2018-04-24T07:55:16.057Z,16.00
2018-04-24T07:57:45.166Z,13.53
2018-04-24T08:00:16.334Z,14.17
2018-04-24T08:02:46.217Z,13.57
2018-04-24T08:05:15.448Z,13.00
2018-04-24T08:07:45.329Z,13.97
2018-04-24T08:10:15.519Z,14.38
2018-04-24T08:12:44.686Z,13.77
2018-04-24T08:15:15.821Z,12.70
2018-04-24T08:17:45.737Z,12.73
2018-04-24T08:20:15.467Z,12.57
2018-04-24T08:22:45.439Z,11.70
2018-04-24T08:25:15.487Z,12.20
2018-04-24T08:27:44.679Z,11.53
2018-04-24T08:30:13.809Z,10.03
2018-04-24T08:32:42.926Z,10.10
2018-04-24T08:35:12.077Z,11.20
2018-04-24T08:37:41.204Z,10.03
2018-04-24T08:40:11.082Z,9.30
2018-04-24T08:42:40.193Z,9.03
2018-04-24T08:45:10.095Z,8.43
2018-04-24T08:47:39.193Z,9.27
2018-04-24T08:50:09.073Z,8.33
2018-04-24T08:52:38.972Z,8.00
2018-04-24T08:55:08.085Z,7.27
2018-04-24T08:57:37.210Z,7.90
2018-04-24T09:00:06.332Z,7.77
2018-04-24T09:02:36.255Z,7.07
2018-04-24T09:05:05.380Z,6.60
2018-04-24T09:07:34.509Z,6.40
2018-04-24T09:10:03.608Z,7.23
2018-04-24T09:12:32.757Z,7.40
2018-04-24T09:15:01.863Z,6.50
2018-04-24T09:17:31.010Z,5.53
2018-04-24T09:20:00.140Z,6.60
2018-04-24T09:22:29.247Z,6.12
2018-04-24T09:24:58.378Z,7.20
2018-04-24T09:27:27.489Z,6.95
2018-04-24T09:30:02.471Z,5.40
2018-04-24T09:32:31.576Z,6.17
2018-04-24T09:35:01.468Z,5.57
2018-04-24T09:37:30.616Z,6.17
2018-04-24T09:39:59.748Z,6.07
2018-04-24T09:42:29.613Z,5.57
2018-04-24T09:44:58.752Z,6.10
2018-04-24T09:47:27.934Z,5.40
2018-04-24T09:49:57.044Z,5.97
2018-04-24T09:52:26.937Z,5.12
2018-04-24T09:54:56.036Z,5.67
2018-04-24T09:57:25.153Z,6.62
2018-04-24T09:59:55.061Z,6.70
2018-04-24T10:02:24.200Z,5.60
2018-04-24T10:04:53.327Z,6.00
2018-04-24T10:07:22.506Z,5.43
2018-04-24T10:09:51.632Z,6.83
2018-04-24T10:12:20.767Z,5.23
2018-04-24T10:14:49.888Z,6.00
2018-04-24T10:17:19.000Z,5.90
2018-04-24T10:19:48.140Z,5.60
2018-04-24T10:22:17.250Z,5.40
2018-04-24T10:24:47.147Z,5.70
2018-04-24T10:27:16.280Z,5.10
2018-04-24T10:29:45.400Z,7.00
2018-04-24T10:32:15.584Z,4.80
2018-04-24T10:34:44.689Z,5.87
2018-04-24T10:37:13.821Z,5.70
2018-04-24T10:39:43.008Z,5.77
2018-04-24T10:42:12.163Z,5.30
2018-04-24T10:44:42.036Z,4.60
2018-04-24T10:47:11.154Z,4.30
2018-04-24T10:49:41.041Z,4.60
2018-04-24T10:52:10.177Z,4.20
2018-04-24T10:54:39.363Z,4.70
2018-04-24T10:57:08.467Z,4.53
2018-04-24T10:59:37.603Z,5.03
2018-04-24T11:02:07.560Z,3.97
2018-04-24T11:04:36.729Z,4.03
2018-04-24T11:07:05.863Z,4.40
2018-04-24T11:09:34.997Z,4.27
2018-04-24T11:12:04.120Z,4.30
2018-04-24T11:14:33.249Z,4.37
2018-04-24T11:17:03.175Z,3.33
2018-04-24T11:19:32.285Z,4.22
2018-04-24T11:22:01.451Z,4.03
2018-04-24T11:24:30.555Z,3.50
2018-04-24T11:26:59.682Z,4.00
2018-04-24T11:29:28.844Z,3.65
2018-04-24T11:31:57.981Z,4.50
2018-04-24T11:34:27.160Z,4.40
2018-04-24T11:36:57.012Z,4.73
2018-04-24T11:39:26.135Z,3.62
2018-04-24T11:41:55.250Z,3.27
2018-04-24T11:44:24.361Z,3.83
2018-04-24T11:46:53.485Z,3.70
2018-04-24T11:49:22.612Z,4.07
2018-04-24T11:51:51.820Z,3.60
2018-04-24T11:54:20.956Z,4.00
2018-04-24T11:56:50.040Z,3.67
2018-04-24T11:59:19.161Z,3.60
2018-04-24T12:01:49.096Z,3.40
2018-04-24T12:04:19.036Z,3.80
2018-04-24T12:06:48.148Z,4.00
2018-04-24T12:09:17.325Z,3.90
2018-04-24T12:11:46.460Z,4.33
2018-04-24T12:14:15.749Z,3.83
2018-04-24T12:16:45.310Z,3.40
2018-04-24T12:19:15.685Z,3.67
2018-04-24T12:21:44.862Z,3.73
2018-04-24T12:24:13.993Z,3.93
2018-04-24T12:26:43.922Z,3.67
2018-04-24T12:29:13.830Z,4.30
2018-04-24T12:31:42.967Z,3.83
2018-04-24T12:34:12.125Z,3.70
2018-04-24T12:36:41.237Z,3.70
2018-04-24T12:39:10.412Z,4.87
2018-04-24T12:41:39.544Z,3.27
2018-04-24T12:44:08.729Z,3.80
2018-04-24T12:46:37.898Z,3.97
2018-04-24T12:49:07.764Z,3.70
2018-04-24T12:51:36.948Z,3.63
2018-04-24T12:54:06.081Z,4.10
2018-04-24T12:56:35.194Z,3.50
2018-04-24T12:59:05.145Z,3.40
2018-04-24T13:01:34.234Z,3.60
2018-04-24T13:04:03.386Z,3.73
2018-04-24T13:06:33.295Z,3.60
2018-04-24T13:09:02.393Z,3.70
2018-04-24T13:11:32.333Z,4.10
2018-04-24T13:14:01.462Z,4.10
2018-04-24T13:16:30.594Z,3.92
2018-04-24T13:19:00.480Z,4.30
2018-04-24T13:21:29.607Z,3.83
2018-04-24T13:23:58.762Z,3.40
2018-04-24T13:26:27.854Z,3.90
2018-04-24T13:28:56.960Z,3.60
2018-04-24T13:31:26.100Z,3.60
2018-04-24T13:33:55.231Z,4.50
2018-04-24T13:36:24.380Z,3.75
2018-04-24T13:38:54.260Z,3.60
2018-04-24T13:41:23.374Z,3.87
2018-04-24T13:43:53.234Z,3.17
2018-04-24T13:46:22.364Z,3.80
2018-04-24T13:48:51.549Z,3.70
2018-04-24T13:51:20.678Z,3.92
2018-04-24T13:53:49.790Z,4.10
2018-04-24T13:56:19.732Z,3.77
2018-04-24T13:58:48.887Z,3.30
2018-04-24T14:01:18.770Z,4.27
2018-04-24T14:03:47.976Z,3.63
2018-04-24T14:06:17.874Z,3.53
2018-04-24T14:08:47.013Z,4.00
2018-04-24T14:11:16.150Z,4.57
2018-04-24T14:13:45.299Z,4.40
2018-04-24T14:16:15.654Z,3.33
2018-04-24T14:18:44.800Z,3.97
2018-04-24T14:21:13.913Z,4.53
2018-04-24T14:23:43.825Z,3.70
2018-04-24T14:26:12.956Z,3.87
2018-04-24T14:28:42.104Z,3.80
2018-04-24T14:31:11.276Z,3.63
2018-04-24T14:33:40.411Z,3.90
2018-04-24T14:36:09.546Z,4.00
2018-04-24T14:38:38.661Z,4.20
2018-04-24T14:41:07.764Z,3.90
2018-04-24T14:43:36.926Z,3.83
2018-04-24T14:46:06.048Z,4.33
2018-04-24T14:48:35.181Z,4.13
2018-04-24T14:51:05.101Z,3.90
2018-04-24T14:53:34.991Z,3.70
2018-04-24T14:56:04.121Z,4.20
2018-04-24T14:58:33.243Z,4.37
2018-04-24T15:01:02.362Z,3.80
2018-04-24T15:03:31.514Z,4.60
2018-04-24T15:06:01.557Z,4.63
2018-04-24T15:08:30.713Z,4.62
2018-04-24T15:10:59.866Z,4.00
2018-04-24T15:13:28.993Z,4.10
2018-04-24T15:15:58.139Z,3.60
2018-04-24T15:18:27.317Z,4.10
2018-04-24T15:20:57.298Z,4.00
2018-04-24T15:23:26.427Z,4.50
2018-04-24T15:25:56.343Z,4.03
2018-04-24T15:28:26.260Z,4.67
2018-04-24T15:30:56.066Z,4.30
2018-04-24T15:33:25.992Z,3.83
2018-04-24T15:35:55.089Z,4.00
2018-04-24T15:38:25.013Z,4.27
2018-04-24T15:40:54.147Z,4.47
2018-04-24T15:43:23.284Z,3.75
2018-04-24T15:45:52.901Z,3.73
2018-04-24T15:48:22.081Z,4.17
2018-04-24T15:50:51.294Z,5.10
2018-04-24T15:53:20.424Z,4.03
2018-04-24T15:55:49.655Z,4.10
2018-04-24T15:58:19.540Z,4.70
2018-04-24T16:00:48.663Z,4.40
2018-04-24T16:03:17.821Z,4.00
2018-04-24T16:05:46.940Z,4.20
2018-04-24T16:08:16.828Z,4.60
2018-04-24T16:10:45.937Z,3.57
2018-04-24T16:13:15.864Z,3.77
2018-04-24T16:15:45.007Z,4.63
2018-04-24T16:18:14.146Z,4.60
2018-04-24T16:20:43.301Z,4.20
2018-04-24T16:23:12.425Z,4.20
2018-04-24T16:25:41.590Z,5.10
2018-04-24T16:28:10.716Z,4.20
2018-04-24T16:30:39.850Z,4.13
2018-04-24T16:33:08.976Z,4.07
2018-04-24T16:35:38.121Z,3.97
2018-04-24T16:38:07.778Z,3.60
2018-04-24T16:40:36.912Z,4.30
2018-04-24T16:43:06.823Z,4.57
2018-04-24T16:45:36.717Z,7.20
2018-04-24T16:48:06.650Z,5.83
2018-04-24T16:50:36.540Z,6.73
2018-04-24T16:53:05.691Z,4.93
2018-04-24T16:55:35.570Z,4.47
2018-04-24T16:58:04.722Z,5.40
2018-04-24T17:00:33.908Z,4.32
2018-04-24T17:03:03.884Z,4.00
2018-04-24T17:05:33.779Z,3.20
2018-04-24T17:08:02.968Z,4.40
2018-04-24T17:10:32.137Z,3.73
2018-04-24T17:13:01.250Z,4.10
2018-04-24T17:15:30.409Z,3.53
2018-04-24T17:17:59.525Z,4.60
2018-04-24T17:20:28.676Z,4.30
2018-04-24T17:22:57.797Z,4.10
2018-04-24T17:25:26.966Z,4.40
2018-04-24T17:27:56.861Z,3.43
2018-04-24T17:30:26.100Z,3.30
2018-04-24T17:32:55.239Z,3.50
2018-04-24T17:35:25.188Z,3.47
2018-04-24T17:37:54.343Z,4.20
2018-04-24T17:40:23.487Z,3.95
2018-04-24T17:42:52.772Z,6.00
2018-04-24T17:45:21.921Z,3.83
2018-04-24T17:47:51.195Z,3.63
2018-04-24T17:50:20.328Z,3.90
2018-04-24T17:52:49.542Z,3.80
2018-04-24T17:55:19.547Z,3.73
2018-04-24T17:57:49.590Z,3.87
2018-04-24T18:00:18.746Z,4.27
2018-04-24T18:02:47.886Z,4.07
2018-04-24T18:05:17.038Z,4.80
2018-04-24T18:07:46.265Z,3.77
2018-04-24T18:10:16.188Z,4.00
2018-04-24T18:12:45.453Z,4.17
2018-04-24T18:15:14.571Z,4.00
2018-04-24T18:17:43.748Z,5.80
2018-04-24T18:20:13.739Z,5.33
2018-04-24T18:22:42.893Z,6.00
2018-04-24T18:25:12.081Z,5.30
2018-04-24T18:27:41.357Z,3.93
2018-04-24T18:30:11.317Z,4.77
2018-04-24T18:32:41.242Z,4.03
2018-04-24T18:35:10.493Z,4.40
2018-04-24T18:37:39.724Z,3.90
2018-04-24T18:40:09.042Z,3.10
2018-04-24T18:42:39.049Z,4.07
2018-04-24T18:45:08.306Z,3.73
2018-04-24T18:47:37.447Z,4.23
2018-04-24T18:50:06.651Z,4.33
2018-04-24T18:52:35.980Z,4.30
2018-04-24T18:55:05.184Z,4.13
2018-04-24T18:57:35.125Z,4.37
2018-04-24T19:00:05.269Z,4.50
2018-04-24T19:02:34.516Z,4.10
2018-04-24T19:05:03.787Z,4.23
2018-04-24T19:07:32.924Z,4.37
2018-04-24T19:10:02.098Z,4.60
2018-04-24T19:12:31.963Z,4.60
2018-04-24T19:15:01.113Z,4.50
2018-04-24T19:17:30.222Z,4.90
2018-04-24T19:19:59.380Z,4.67
2018-04-24T19:22:30.053Z,4.60
2018-04-24T19:25:04.726Z,4.60
2018-04-24T19:27:33.977Z,4.28
2018-04-24T19:30:03.147Z,4.10
2018-04-24T19:32:32.267Z,4.15
2018-04-24T19:35:01.478Z,5.17
2018-04-24T19:37:31.591Z,4.30
2018-04-24T19:40:07.046Z,4.70
2018-04-24T19:42:36.259Z,4.53
2018-04-24T19:45:05.416Z,4.43
2018-04-24T19:47:34.622Z,4.30
2018-04-24T19:50:09.192Z,5.27
2018-04-24T19:52:39.187Z,4.10
2018-04-24T19:55:13.836Z,4.90
2018-04-24T19:57:43.764Z,4.27
2018-04-24T20:00:13.686Z,4.63
2018-04-24T20:02:42.968Z,4.97
2018-04-24T20:05:12.983Z,4.30
2018-04-24T20:07:42.126Z,4.60
2018-04-24T20:10:11.338Z,4.83
2018-04-24T20:12:40.546Z,5.20
2018-04-24T20:15:09.699Z,5.33
2018-04-24T20:17:38.878Z,4.80
2018-04-24T20:20:08.024Z,4.97
2018-04-24T20:22:37.300Z,5.30
2018-04-24T20:25:06.448Z,4.53
2018-04-24T20:27:35.623Z,4.70
2018-04-24T20:30:04.790Z,5.77
2018-04-24T20:32:33.954Z,4.68
2018-04-24T20:35:03.112Z,4.87
2018-04-24T20:37:32.275Z,4.57
2018-04-24T20:40:01.420Z,4.90
2018-04-24T20:42:31.355Z,5.32
2018-04-24T20:45:00.487Z,5.13
2018-04-24T20:47:29.752Z,5.22
2018-04-24T20:49:59.660Z,6.13
2018-04-24T20:52:28.814Z,8.07
2018-04-24T20:54:58.010Z,7.43
2018-04-24T20:57:27.150Z,12.23
2018-04-24T20:59:56.317Z,9.30
2018-04-24T21:02:26.222Z,7.03
2018-04-24T21:04:55.391Z,7.50
2018-04-24T21:07:24.670Z,6.83
2018-04-24T21:09:53.862Z,7.20
2018-04-24T21:12:23.001Z,6.53
2018-04-24T21:14:52.941Z,5.93
2018-04-24T21:17:22.080Z,5.15
2018-04-24T21:19:52.024Z,5.50
2018-04-24T21:22:21.968Z,6.53
2018-04-24T21:24:51.111Z,6.60
2018-04-24T21:27:20.278Z,6.40
2018-04-24T21:29:49.426Z,5.90
2018-04-24T21:32:19.421Z,5.33
2018-04-24T21:34:48.561Z,6.70
2018-04-24T21:37:17.706Z,4.47
2018-04-24T21:39:46.877Z,5.37
2018-04-24T21:42:16.762Z,5.50
2018-04-24T21:44:45.893Z,5.83
2018-04-24T21:47:15.026Z,5.80
2018-04-24T21:49:44.163Z,5.80
2018-04-24T21:52:13.289Z,5.83
2018-04-24T21:54:42.429Z,6.40
2018-04-24T21:57:11.592Z,5.20
2018-04-24T21:59:40.748Z,5.80
2018-04-24T22:02:09.970Z,6.23
2018-04-24T22:04:39.115Z,6.63
2018-04-24T22:07:08.384Z,5.67
2018-04-24T22:09:37.559Z,6.00
2018-04-24T22:12:06.696Z,6.13
2018-04-24T22:14:35.898Z,5.93
2018-04-24T22:17:05.049Z,6.40
2018-04-24T22:19:34.211Z,6.00
2018-04-24T22:22:03.369Z,6.00
2018-04-24T22:24:32.534Z,5.82
2018-04-24T22:27:01.668Z,6.10
2018-04-24T22:29:30.845Z,6.10
2018-04-24T22:32:00.001Z,6.00
2018-04-24T22:34:29.154Z,5.87
2018-04-24T22:36:59.065Z,5.93
2018-04-24T22:39:28.267Z,6.28
2018-04-24T22:41:57.446Z,6.30
2018-04-24T22:44:27.341Z,5.87
2018-04-24T22:46:56.520Z,6.20
2018-04-24T22:49:26.802Z,6.57
2018-04-24T22:51:55.991Z,6.70
2018-04-24T22:54:25.107Z,5.97
2018-04-24T22:56:54.401Z,6.00
2018-04-24T22:59:23.545Z,5.70
2018-04-24T23:01:53.444Z,7.57
2018-04-24T23:04:22.647Z,6.62
2018-04-24T23:06:52.578Z,6.33
2018-04-24T23:09:22.547Z,6.43
2018-04-24T23:12:09.402Z,6.53
2018-04-24T23:14:56.217Z,6.47
2018-04-24T23:17:43.614Z,6.85
2018-04-24T23:20:16.737Z,6.77
2018-04-24T23:22:46.050Z,7.27
2018-04-24T23:25:15.195Z,7.63
2018-04-24T23:27:44.310Z,7.20
2018-04-24T23:30:14.293Z,7.43
2018-04-24T23:32:43.607Z,6.90
2018-04-24T23:35:13.910Z,6.97
2018-04-24T23:37:43.046Z,7.63
2018-04-24T23:40:12.981Z,6.47
2018-04-24T23:42:42.140Z,6.60
2018-04-24T23:45:12.049Z,7.50
2018-04-24T23:47:41.154Z,6.70
2018-04-24T23:50:10.381Z,7.10
2018-04-24T23:52:39.516Z,7.53
2018-04-24T23:55:08.646Z,7.53
2018-04-24T23:57:38.580Z,7.03
